createdAt,value
2023-06-18T00:01:13.817Z,9.82
2023-06-18T00:06:16.551Z,10.32
2023-06-18T00:11:21.174Z,11.85
2023-06-18T00:16:27.676Z,11.40
2023-06-18T00:21:30.991Z,11.05
2023-06-18T00:26:33.972Z,11.23
2023-06-18T00:31:38.008Z,10.88
2023-06-18T00:36:44.616Z,11.20
2023-06-18T00:41:48.083Z,10.60
2023-06-18T00:46:52.842Z,10.87
2023-06-18T00:51:56.064Z,9.85
2023-06-18T00:57:03.150Z,10.07
2023-06-18T01:02:06.654Z,9.95
2023-06-18T01:07:14.810Z,9.43
2023-06-18T01:12:19.229Z,8.77
2023-06-18T01:17:23.762Z,9.75
2023-06-18T01:22:31.479Z,10.10
2023-06-18T01:27:35.160Z,9.30
2023-06-18T01:32:39.435Z,9.27
2023-06-18T01:38:21.189Z,9.25
2023-06-18T01:43:36.136Z,9.40
2023-06-18T01:48:42.627Z,8.93
2023-06-18T01:53:48.397Z,8.65
2023-06-18T01:58:52.108Z,8.40
2023-06-18T02:03:55.787Z,8.82
2023-06-18T02:08:58.925Z,8.32
2023-06-18T02:14:01.738Z,9.02
2023-06-18T02:19:04.966Z,9.30
2023-06-18T02:24:08.251Z,9.07
2023-06-18T02:29:13.245Z,9.30
2023-06-18T02:34:16.527Z,8.70
2023-06-18T02:39:19.164Z,8.75
2023-06-18T02:44:23.562Z,8.77
2023-06-18T02:49:26.205Z,9.50
2023-06-18T02:54:28.934Z,9.57
2023-06-18T02:59:31.942Z,8.68
2023-06-18T03:04:34.808Z,8.98
2023-06-18T03:09:37.684Z,9.10
2023-06-18T03:14:41.269Z,9.23
2023-06-18T03:19:44.844Z,9.30
2023-06-18T03:24:50.318Z,10.65
2023-06-18T03:29:57.140Z,9.45
2023-06-18T03:35:01.715Z,9.32
2023-06-18T03:40:05.468Z,9.18
2023-06-18T03:45:10.495Z,9.48
2023-06-18T03:50:13.400Z,9.93
2023-06-18T03:55:16.984Z,9.60
2023-06-18T04:00:21.157Z,9.60
2023-06-18T04:05:24.195Z,10.85
2023-06-18T04:10:27.390Z,9.80
2023-06-18T04:15:31.366Z,10.68
2023-06-18T04:25:37.932Z,10.80
2023-06-18T04:30:41.395Z,10.90
2023-06-18T04:35:46.523Z,12.32
2023-06-18T04:40:50.970Z,12.90
2023-06-18T04:51:00.132Z,12.60
2023-06-18T04:56:04.346Z,12.93
2023-06-18T05:01:11.929Z,13.55
2023-06-18T05:06:17.340Z,12.80
2023-06-18T05:11:21.112Z,13.00
2023-06-18T05:21:28.136Z,12.68
2023-06-18T05:26:32.332Z,13.27
2023-06-18T05:31:35.317Z,13.27
2023-06-18T05:36:41.437Z,11.95
2023-06-18T05:41:44.461Z,12.98
2023-06-18T05:46:48.505Z,11.43
2023-06-18T05:51:51.941Z,12.33
2023-06-18T05:56:54.983Z,13.43
2023-06-18T06:01:59.088Z,12.77
2023-06-18T06:07:02.065Z,12.20
2023-06-18T06:12:05.296Z,12.60
2023-06-18T06:17:10.338Z,11.98
2023-06-18T06:22:15.309Z,12.00
2023-06-18T06:27:20.781Z,12.23
2023-06-18T06:32:24.690Z,12.80
2023-06-18T06:37:28.431Z,12.35
2023-06-18T06:48:00.281Z,13.82
2023-06-18T06:53:18.465Z,12.77
2023-06-18T06:58:21.266Z,13.15
2023-06-18T07:03:24.879Z,12.77
2023-06-18T07:08:47.647Z,12.18
2023-06-18T07:13:50.394Z,11.37
2023-06-18T07:18:53.150Z,11.93
2023-06-18T07:23:56.363Z,10.70
2023-06-18T07:28:59.387Z,11.75
2023-06-18T07:34:02.200Z,11.00
2023-06-18T07:44:08.356Z,11.77
2023-06-18T07:49:11.058Z,12.10
2023-06-18T07:54:14.322Z,12.05
2023-06-18T07:59:16.967Z,11.77
2023-06-18T08:04:19.904Z,10.88
2023-06-18T08:09:22.724Z,10.02
2023-06-18T08:14:25.679Z,10.32
2023-06-18T08:19:28.560Z,10.90
2023-06-18T08:24:31.421Z,10.68
2023-06-18T08:29:34.422Z,10.55
2023-06-18T08:39:48.514Z,11.27
2023-06-18T08:44:54.313Z,10.75
2023-06-18T08:50:00.344Z,9.73
2023-06-18T08:55:03.717Z,10.88
2023-06-18T09:00:09.850Z,11.10
2023-06-18T09:05:12.557Z,10.60
2023-06-18T09:10:16.118Z,10.63
2023-06-18T09:15:20.303Z,10.57
2023-06-18T09:20:24.388Z,10.23
2023-06-18T09:25:29.601Z,10.90
2023-06-18T09:30:37.205Z,12.40
2023-06-18T09:35:39.881Z,11.80
2023-06-18T09:45:47.300Z,10.80
2023-06-18T09:50:50.145Z,11.90
2023-06-18T09:55:53.141Z,10.13
2023-06-18T10:06:21.893Z,9.88
2023-06-18T10:11:25.904Z,8.95
2023-06-18T10:16:30.838Z,8.30
2023-06-18T10:21:38.790Z,8.63
2023-06-18T10:26:42.599Z,7.95
2023-06-18T10:31:46.207Z,7.90
2023-06-18T10:37:09.517Z,8.18
2023-06-18T10:42:16.151Z,7.97
2023-06-18T10:47:27.266Z,7.53
2023-06-18T10:52:31.660Z,7.97
2023-06-18T10:57:42.025Z,8.20
2023-06-18T11:02:46.595Z,8.10
2023-06-18T11:08:01.213Z,7.50
2023-06-18T11:13:07.057Z,7.78
2023-06-18T11:18:11.453Z,8.07
2023-06-18T11:23:17.041Z,8.23
2023-06-18T11:28:21.388Z,8.75
2023-06-18T11:33:30.489Z,8.02
2023-06-18T11:38:33.885Z,9.18
2023-06-18T11:43:58.163Z,10.75
2023-06-18T11:49:02.531Z,10.07
2023-06-18T11:54:05.389Z,10.68
2023-06-18T11:59:27.126Z,10.50
2023-06-18T12:04:36.436Z,10.52
2023-06-18T12:09:41.772Z,9.30
2023-06-18T12:14:47.426Z,10.00
2023-06-18T12:19:57.647Z,9.15
2023-06-18T12:25:00.621Z,8.77
2023-06-18T12:30:09.173Z,10.30
2023-06-18T12:35:17.917Z,8.73
2023-06-18T12:40:21.652Z,8.93
2023-06-18T12:45:27.866Z,8.65
2023-06-18T12:50:36.063Z,8.05
2023-06-18T12:55:43.192Z,8.65
2023-06-18T13:00:46.273Z,8.90
2023-06-18T13:05:49.305Z,8.93
2023-06-18T13:10:53.773Z,9.23
2023-06-18T13:15:56.513Z,9.13
2023-06-18T13:21:00.855Z,8.80
2023-06-18T13:26:03.730Z,8.80
2023-06-18T13:31:06.315Z,9.43
2023-06-18T13:36:11.041Z,9.00
2023-06-18T13:41:13.638Z,9.77
2023-06-18T13:46:16.550Z,9.00
2023-06-18T13:51:19.628Z,8.98
2023-06-18T13:56:22.321Z,8.90
2023-06-18T14:01:24.976Z,8.45
2023-06-18T14:06:27.720Z,8.82
2023-06-18T14:11:30.554Z,8.60
2023-06-18T14:16:33.451Z,8.55
2023-06-18T14:21:36.061Z,8.30
2023-06-18T14:26:40.800Z,7.90
2023-06-18T14:31:43.415Z,8.32
2023-06-18T14:36:46.081Z,7.97
2023-06-18T14:41:51.766Z,8.10
2023-06-18T14:46:55.915Z,8.45
2023-06-18T14:51:58.597Z,8.25
2023-06-18T14:57:03.509Z,8.45
2023-06-18T15:02:19.620Z,8.40
2023-06-18T15:07:29.215Z,8.23
2023-06-18T15:12:31.818Z,8.02
2023-06-18T15:17:34.859Z,8.27
2023-06-18T15:22:37.714Z,8.27
2023-06-18T15:27:44.503Z,8.20
2023-06-18T15:32:47.106Z,8.25
2023-06-18T15:37:49.904Z,8.38
2023-06-18T15:42:52.665Z,8.10
2023-06-18T15:47:55.611Z,8.70
2023-06-18T15:52:58.287Z,8.38
2023-06-18T15:58:02.135Z,8.23
2023-06-18T16:03:05.814Z,9.07
2023-06-18T16:08:09.273Z,8.43
2023-06-18T16:13:16.460Z,8.55
2023-06-18T16:18:21.438Z,9.05
2023-06-18T16:23:26.375Z,9.20
2023-06-18T16:28:29.106Z,8.50
2023-06-18T16:33:32.006Z,8.73
2023-06-18T16:38:34.861Z,9.27
2023-06-18T16:43:38.833Z,8.68
2023-06-18T16:48:42.381Z,9.23
2023-06-18T16:58:47.525Z,8.98
2023-06-18T17:03:52.151Z,9.13
2023-06-18T17:08:54.863Z,9.68
2023-06-18T17:13:57.572Z,9.50
2023-06-18T17:19:00.407Z,10.07
2023-06-18T17:24:03.458Z,9.50
2023-06-18T17:29:06.446Z,9.60
2023-06-18T17:34:09.079Z,8.93
2023-06-18T17:39:11.936Z,9.43
2023-06-18T17:44:16.653Z,9.90
2023-06-18T17:49:19.629Z,9.07
2023-06-18T17:54:22.287Z,9.93
2023-06-18T17:59:27.317Z,9.23
2023-06-18T18:04:31.357Z,10.93
2023-06-18T18:09:36.651Z,10.80
2023-06-18T18:14:40.931Z,9.60
2023-06-18T18:19:43.786Z,10.45
2023-06-18T18:24:46.540Z,11.10
2023-06-18T18:29:49.317Z,10.20
2023-06-18T18:34:53.529Z,10.77
2023-06-18T18:39:56.186Z,10.90
2023-06-18T18:45:00.148Z,10.82
2023-06-18T18:50:02.863Z,10.43
2023-06-18T18:55:07.864Z,10.40
2023-06-18T19:00:11.069Z,10.75
2023-06-18T19:05:13.722Z,11.07
2023-06-18T19:10:16.444Z,11.30
2023-06-18T19:15:19.230Z,11.77
2023-06-18T19:20:23.821Z,11.67
2023-06-18T19:25:26.897Z,11.48
2023-06-18T19:30:29.606Z,11.73
2023-06-18T19:35:32.156Z,10.85
2023-06-18T19:40:35.134Z,11.27
2023-06-18T19:45:37.768Z,11.77
2023-06-18T19:50:41.954Z,10.63
2023-06-18T19:55:44.565Z,11.52
2023-06-18T20:00:50.404Z,12.38
2023-06-18T20:05:53.117Z,11.15
2023-06-18T20:10:57.062Z,12.83
2023-06-18T20:15:59.918Z,11.40
2023-06-18T20:21:04.072Z,11.85
2023-06-18T20:26:07.918Z,12.27
2023-06-18T20:31:12.406Z,10.40
2023-06-18T20:36:15.172Z,12.38
2023-06-18T20:41:19.141Z,13.00
2023-06-18T20:46:24.208Z,11.77
2023-06-18T20:51:27.121Z,11.13
2023-06-18T20:56:30.154Z,12.43
2023-06-18T21:01:33.451Z,12.37
2023-06-18T21:06:36.693Z,11.60
2023-06-18T21:11:40.568Z,11.68
2023-06-18T21:16:43.320Z,11.70
2023-06-18T21:21:47.703Z,12.40
2023-06-18T21:26:50.952Z,11.30
2023-06-18T21:31:53.817Z,11.45
2023-06-18T21:36:58.312Z,12.55
2023-06-18T21:42:03.482Z,12.95
2023-06-18T21:47:06.900Z,12.32
2023-06-18T21:52:09.582Z,12.80
2023-06-18T21:57:12.258Z,13.50
2023-06-18T22:02:16.039Z,13.00
2023-06-18T22:07:18.999Z,13.07
2023-06-18T22:12:23.325Z,11.85
2023-06-18T22:17:27.622Z,13.02
2023-06-18T22:22:30.396Z,12.77
2023-06-18T22:27:33.023Z,12.23
2023-06-18T22:32:36.014Z,13.20
2023-06-18T22:37:39.231Z,12.50
2023-06-18T22:42:42.134Z,12.70
2023-06-18T22:47:44.786Z,12.40
2023-06-18T22:52:47.473Z,12.63
2023-06-18T22:57:50.676Z,12.40
2023-06-18T23:02:53.425Z,13.18
2023-06-18T23:07:57.221Z,11.98
2023-06-18T23:12:59.977Z,11.77
2023-06-18T23:18:03.332Z,12.15
2023-06-18T23:23:08.815Z,11.90
2023-06-18T23:28:11.434Z,13.05
2023-06-18T23:33:14.189Z,11.60
2023-06-18T23:38:16.825Z,11.73
2023-06-18T23:43:20.514Z,12.95
2023-06-18T23:48:23.107Z,11.88
2023-06-18T23:53:25.873Z,12.27
2023-06-18T23:58:28.620Z,12.40
